Time;durP1;ratioP1;P1;durP2;ratioP2;P2;SDS_P1;SDS_P2;PMS_P1;PMS_P2;Temp;Humidity;BMP_temperature;BMP_pressure;BME280_temperature;BME280_humidity;BME280_pressure;Samples;Min_cycle;Max_cycle;Signal;HPM_P1;HPM_P2
2022/05/22 00:02:00;;;;;;;10.40;4.07;;;;;;;-144.47;56.05;53362.59;5019200;28;20079;-69
2022/05/22 00:04:26;;;;;;;12.23;4.57;;;;;;;-144.47;55.97;53344.72;5035218;28;20029;-67
2022/05/22 00:06:51;;;;;;;9.65;3.83;;;;;;;-144.47;56.13;53360.63;5030938;28;20025;-70
2022/05/22 00:09:17;;;;;;;15.10;4.78;;;;;;;-144.47;56.06;53364.59;5029957;28;20022;-69
2022/05/22 00:11:42;;;;;;;8.52;3.80;;;;;;;-144.47;56.04;53338.75;5037907;28;20029;-68
2022/05/22 00:14:11;;;;;;;11.90;4.15;;;;;;;-144.47;56.27;53338.75;5031631;28;20082;-69
2022/05/22 00:16:37;;;;;;;10.65;4.35;;;;;;;-144.47;56.42;53318.91;5041865;28;20044;-71
2022/05/22 00:19:08;;;;;;;10.05;4.13;;;;;;;-144.47;56.53;53376.50;5026216;28;20029;-68
2022/05/22 00:21:35;;;;;;;18.30;6.30;;;;;;;-144.47;56.90;53380.47;5028391;28;20394;-67
2022/05/22 00:24:00;;;;;;;12.43;4.78;;;;;;;-144.47;56.84;53348.69;5033479;28;20025;-69
2022/05/22 00:26:26;;;;;;;12.63;4.45;;;;;;;-144.47;57.01;53354.66;5032820;28;20431;-69
2022/05/22 00:28:51;;;;;;;12.98;4.60;;;;;;;-144.47;57.17;53372.53;5027815;28;20090;-69
2022/05/22 00:31:17;;;;;;;16.77;4.65;;;;;;;-144.47;57.35;53334.78;5035617;28;20032;-70
2022/05/22 00:33:42;;;;;;;14.10;4.63;;;;;;;-144.47;57.45;53346.72;5036418;28;20117;-68
2022/05/22 00:36:07;;;;;;;12.70;4.60;;;;;;;-144.47;57.61;53384.44;5030504;28;20028;-69
2022/05/22 00:38:33;;;;;;;13.60;5.38;;;;;;;-144.47;58.11;53346.72;5030036;28;20053;-70
2022/05/22 00:40:58;;;;;;;15.95;4.90;;;;;;;-144.47;58.07;53366.56;5026120;28;20029;-71
2022/05/22 00:43:32;;;;;;;12.88;4.65;;;;;;;-144.47;57.96;53330.81;5020043;28;20025;-69
2022/05/22 00:45:59;;;;;;;13.48;5.13;;;;;;;-144.47;58.33;53384.44;5071128;22;20286;-69
2022/05/22 00:48:26;;;;;;;16.27;4.32;;;;;;;-144.47;58.32;53346.72;5073610;28;20040;-69
2022/05/22 00:50:55;;;;;;;15.15;5.60;;;;;;;-144.47;58.70;53334.78;5075540;28;20024;-70
2022/05/22 00:53:22;;;;;;;14.13;5.35;;;;;;;-144.47;58.78;53392.41;5070907;28;20020;-70
2022/05/22 00:55:48;;;;;;;10.88;5.22;;;;;;;-144.47;59.25;53356.63;5052949;28;20036;-71
2022/05/22 00:58:19;;;;;;;16.35;5.65;;;;;;;-144.47;59.30;53370.53;5047320;28;20616;-70
2022/05/22 01:00:44;;;;;;;12.75;4.90;;;;;;;-144.47;59.45;53356.63;5066532;28;20024;-71
2022/05/22 01:03:26;;;;;;;9.43;4.45;;;;;;;-144.47;59.40;53362.59;5057927;28;20032;-69
2022/05/22 01:05:54;;;;;;;13.38;4.47;;;;;;;-144.47;59.58;53392.41;5050168;28;20082;-69
2022/05/22 01:08:19;;;;;;;17.02;5.00;;;;;;;-144.47;59.58;53352.66;5064901;28;20095;-69
2022/05/22 01:10:51;;;;;;;21.65;5.30;;;;;;;-144.47;59.63;53348.69;5069862;28;20050;-71
2022/05/22 01:13:22;;;;;;;11.18;5.30;;;;;;;-144.47;59.72;53348.69;5054567;28;20050;-68
2022/05/22 01:15:49;;;;;;;14.90;5.88;;;;;;;-144.47;60.15;53344.72;5058614;28;20437;-70
2022/05/22 01:18:15;;;;;;;10.88;5.05;;;;;;;-144.47;60.41;53384.44;5059975;28;20045;-69
2022/05/22 01:20:48;;;;;;;13.05;5.82;;;;;;;-144.47;60.47;53408.28;5036797;28;20068;-69
2022/05/22 01:23:13;;;;;;;15.88;5.25;;;;;;;-144.47;60.57;53340.75;5046244;28;20519;-67
2022/05/22 01:25:39;;;;;;;18.00;5.25;;;;;;;-144.47;60.73;53390.41;5047437;28;20029;-70
2022/05/22 01:28:06;;;;;;;17.42;5.90;;;;;;;-144.47;61.14;53408.28;5061245;28;20031;-68
2022/05/22 01:30:31;;;;;;;14.68;5.82;;;;;;;-144.47;61.07;53362.59;5050090;28;20029;-70
2022/05/22 01:32:57;;;;;;;13.15;5.43;;;;;;;-144.47;61.37;53352.66;5068568;28;20108;-69
2022/05/22 01:35:26;;;;;;;14.25;5.43;;;;;;;-144.47;61.67;53374.50;5060228;28;20055;-70
2022/05/22 01:37:52;;;;;;;17.05;5.03;;;;;;;-144.47;61.67;53394.38;5049876;28;20388;-69
2022/05/22 01:40:18;;;;;;;16.52;5.80;;;;;;;-144.47;61.55;53400.34;5059986;28;20048;-69
2022/05/22 01:42:45;;;;;;;14.63;5.18;;;;;;;-144.47;61.61;53408.28;5052527;28;20488;-68
2022/05/22 01:45:13;;;;;;;16.77;5.80;;;;;;;-144.47;61.76;53350.69;5051948;28;20033;-68
2022/05/22 01:47:39;;;;;;;11.82;5.13;;;;;;;-144.47;61.75;53400.34;5056617;28;20534;-70
2022/05/22 01:50:06;;;;;;;11.45;5.13;;;;;;;-144.47;61.64;53404.31;5064136;28;20047;-70
2022/05/22 01:52:32;;;;;;;12.38;5.22;;;;;;;-144.47;61.92;53366.56;5069294;28;20116;-70
2022/05/22 01:54:57;;;;;;;12.70;5.07;;;;;;;-144.47;61.98;53378.50;5066793;28;20099;-71
2022/05/22 01:57:23;;;;;;;11.35;4.78;;;;;;;-144.47;62.01;53362.59;5042963;28;20049;-70
2022/05/22 01:59:48;;;;;;;16.80;5.82;;;;;;;-144.47;62.26;53382.47;5038426;28;20025;-71
2022/05/22 02:02:14;;;;;;;25.15;5.68;;;;;;;-144.47;62.43;53396.38;5068764;28;20491;-68
2022/05/22 02:04:39;;;;;;;13.18;5.65;;;;;;;-144.47;62.75;53392.41;5054135;28;20021;-70
2022/05/22 02:09:48;;;;;;;14.80;5.90;;;;;;;-144.47;63.16;53384.44;5066337;28;20444;-70
2022/05/22 02:12:14;;;;;;;13.20;6.00;;;;;;;-144.47;63.22;53402.31;5069065;28;20020;-71
2022/05/22 02:14:39;;;;;;;15.30;6.22;;;;;;;-144.47;63.48;53378.50;5065274;28;20032;-69
2022/05/22 02:17:05;;;;;;;17.50;7.03;;;;;;;-144.47;63.44;53364.59;5049401;28;20021;-71
2022/05/22 02:19:30;;;;;;;12.02;6.30;;;;;;;-144.47;63.48;53402.31;5060976;28;20144;-70
2022/05/22 02:21:56;;;;;;;16.83;5.93;;;;;;;-144.47;63.53;53366.56;5059765;28;20107;-68
2022/05/22 02:24:21;;;;;;;16.48;6.30;;;;;;;-144.47;63.45;53434.09;5055802;28;20024;-69
2022/05/22 02:26:46;;;;;;;24.38;6.03;;;;;;;-144.47;63.85;53406.31;5068999;28;20550;-70
2022/05/22 02:29:11;;;;;;;12.18;6.10;;;;;;;-144.47;63.93;53348.69;5055323;28;20031;-69
2022/05/22 02:31:37;;;;;;;14.50;6.20;;;;;;;-144.47;64.32;53420.22;5063476;28;20036;-70
2022/05/22 02:34:03;;;;;;;13.45;6.65;;;;;;;-144.47;64.49;53386.44;5068887;28;20074;-70
2022/05/22 02:36:28;;;;;;;18.52;7.28;;;;;;;-144.47;64.83;53404.31;5067897;28;20024;-69
2022/05/22 02:38:57;;;;;;;12.98;7.10;;;;;;;-144.47;64.64;53398.34;5072193;28;20024;-70
2022/05/22 02:41:25;;;;;;;21.20;7.38;;;;;;;-144.47;64.88;53346.72;5048726;28;20380;-70
2022/05/22 02:43:51;;;;;;;17.90;6.85;;;;;;;-144.47;64.94;53394.38;5046155;28;20052;-70
2022/05/22 02:46:18;;;;;;;23.88;7.25;;;;;;;-144.47;65.28;53368.56;5056291;28;20024;-70
2022/05/22 02:48:43;;;;;;;16.25;7.32;;;;;;;-144.47;65.17;53378.50;5061376;28;20112;-70
2022/05/22 02:51:14;;;;;;;14.63;6.75;;;;;;;-144.47;65.25;53358.63;5061031;28;20155;-71
2022/05/22 02:53:40;;;;;;;16.75;7.57;;;;;;;-144.47;65.51;53378.50;5072249;28;20028;-69
2022/05/22 02:56:10;;;;;;;25.20;6.85;;;;;;;-144.47;65.83;53372.53;5073317;28;20021;-69
2022/05/22 02:58:36;;;;;;;20.30;6.82;;;;;;;-144.47;66.03;53396.38;5066901;28;20044;-69
2022/05/22 03:01:01;;;;;;;10.50;6.28;;;;;;;-144.47;66.17;53424.19;5065006;28;20030;-70
2022/05/22 03:03:26;;;;;;;11.60;6.55;;;;;;;-144.47;66.06;53432.13;5051740;28;20033;-69
2022/05/22 03:08:35;;;;;;;20.13;6.70;;;;;;;-144.47;66.46;53404.31;5065373;28;20067;-69
2022/05/22 03:11:04;;;;;;;14.82;7.00;;;;;;;-144.47;66.78;53410.28;5053604;28;20045;-70
2022/05/22 03:13:30;;;;;;;;;;;;;;;-144.47;66.77;53384.44;5073528;28;20099;-70
2022/05/22 03:15:55;;;;;;;15.32;7.53;;;;;;;-144.47;66.71;53426.16;5072524;28;20004;-67
2022/05/22 03:18:20;;;;;;;17.30;7.05;;;;;;;-144.47;67.02;53368.56;5058924;28;20033;-69
2022/05/22 03:20:46;;;;;;;15.50;6.57;;;;;;;-144.47;66.61;53372.53;5034088;28;20500;-70
2022/05/22 03:23:13;;;;;;;13.25;6.20;;;;;;;-144.47;66.91;53380.47;5062163;28;20557;-69
2022/05/22 03:25:39;;;;;;;15.23;6.75;;;;;;;-144.47;67.21;53428.16;5071862;28;20103;-69
2022/05/22 03:28:04;;;;;;;12.15;6.70;;;;;;;-144.47;67.31;53410.28;5072302;28;20482;-68
2022/05/22 03:30:29;;;;;;;21.35;7.90;;;;;;;-144.47;67.62;53412.25;5068307;28;20025;-69
2022/05/22 03:32:55;;;;;;;21.20;6.93;;;;;;;-144.47;67.71;53372.53;5064906;28;20054;-70
2022/05/22 03:35:20;;;;;;;12.00;7.05;;;;;;;-144.47;67.25;53412.25;5072493;28;20507;-70
2022/05/22 03:37:45;;;;;;;14.02;6.43;;;;;;;-144.47;67.16;53386.44;5065073;28;20029;-68
2022/05/22 03:40:13;;;;;;;18.98;7.03;;;;;;;-144.47;66.98;53416.22;5052233;28;20506;-71
2022/05/22 03:42:38;;;;;;;18.42;7.00;;;;;;;-144.47;67.07;53432.13;5071980;28;20488;-68
2022/05/22 03:45:04;;;;;;;17.52;6.88;;;;;;;-144.47;67.03;53406.31;5064349;28;20082;-68
2022/05/22 03:47:29;;;;;;;17.05;6.10;;;;;;;-144.47;67.11;53406.31;5048637;28;20024;-69
2022/05/22 03:49:54;;;;;;;17.02;6.20;;;;;;;-144.47;67.24;53372.53;5052312;28;20094;-69
2022/05/22 03:52:20;;;;;;;11.82;6.82;;;;;;;-144.47;67.12;53412.25;5071890;28;20035;-69
2022/05/22 03:54:45;;;;;;;12.65;6.75;;;;;;;-144.47;67.05;53364.59;5071715;28;20024;-69
2022/05/22 03:57:10;;;;;;;15.20;5.65;;;;;;;-144.47;67.01;53418.22;5049985;28;20025;-69
2022/05/22 03:59:41;;;;;;;15.15;6.05;;;;;;;-144.47;66.73;53404.31;5037277;28;20027;-70
2022/05/22 04:02:06;;;;;;;19.13;5.88;;;;;;;-144.47;66.67;53412.25;5054139;28;20496;-70
2022/05/22 04:04:32;;;;;;;14.90;6.00;;;;;;;-144.47;66.66;53394.38;5056537;28;20037;-69
2022/05/22 04:06:57;;;;;;;16.17;5.85;;;;;;;-144.47;66.49;53356.63;5059444;28;20025;-68
2022/05/22 04:09:26;;;;;;;14.43;5.53;;;;;;;-144.47;66.04;53390.41;5070066;28;20017;-70
2022/05/22 04:11:51;;;;;;;12.05;5.70;;;;;;;-144.47;66.20;53396.38;5049924;28;20027;-70
2022/05/22 04:14:19;;;;;;;13.55;5.65;;;;;;;-144.47;66.41;53404.31;5065439;28;20391;-70
2022/05/22 04:16:45;;;;;;;12.43;6.13;;;;;;;-144.47;66.58;53416.22;5059248;28;20024;-69
2022/05/22 04:19:10;;;;;;;19.10;6.95;;;;;;;-144.47;66.26;53386.44;5057585;28;20196;-69
2022/05/22 04:21:35;;;;;;;17.50;6.78;;;;;;;-144.47;66.29;53396.38;5069293;28;20047;-68
2022/05/22 04:26:44;;;;;;;12.60;5.85;;;;;;;-144.47;65.85;53420.22;5059936;28;20032;-69
2022/05/22 04:29:10;;;;;;;17.30;5.85;;;;;;;-144.47;65.80;53402.31;5050760;28;20025;-69
2022/05/22 04:31:35;;;;;;;15.80;6.00;;;;;;;-144.47;65.69;53436.09;5050723;28;20562;-69
2022/05/22 04:34:01;;;;;;;13.02;5.38;;;;;;;-144.47;65.39;53396.38;5069457;28;20107;-71
2022/05/22 04:36:26;;;;;;;13.48;5.68;;;;;;;-144.47;65.07;53386.44;5061048;28;20031;-70
2022/05/22 04:38:51;;;;;;;14.70;5.18;;;;;;;-144.47;65.04;53368.56;5054052;28;20020;-70
2022/05/22 04:41:18;;;;;;;12.45;5.28;;;;;;;-144.47;64.77;53392.41;5056576;28;20086;-69
2022/05/22 04:43:43;;;;;;;8.90;5.13;;;;;;;-144.47;64.65;53380.47;5042611;28;20037;-69
2022/05/22 04:46:08;;;;;;;10.93;5.10;;;;;;;-144.47;64.29;53408.28;5053891;28;20021;-69
2022/05/22 04:48:35;;;;;;;13.65;5.70;;;;;;;-144.47;63.67;53410.28;5048829;28;20082;-70
2022/05/22 04:51:00;;;;;;;10.25;4.82;;;;;;;-144.47;63.63;53360.63;5050659;28;20618;-70
2022/05/22 04:53:27;;;;;;;17.13;5.15;;;;;;;-144.47;63.68;53384.44;5067260;28;20044;-73
2022/05/22 04:55:52;;;;;;;15.30;5.18;;;;;;;-144.47;63.21;53372.53;5070557;28;20020;-70
2022/05/22 04:58:19;;;;;;;13.38;4.97;;;;;;;-144.47;62.84;53370.53;5056723;28;20033;-71
2022/05/22 05:00:45;;;;;;;11.52;4.18;;;;;;;-144.47;62.43;53404.31;5059530;28;20024;-69
2022/05/22 05:03:11;;;;;;;17.20;4.72;;;;;;;-144.47;61.93;53406.31;5060425;28;20054;-70
2022/05/22 05:05:36;;;;;;;15.55;4.53;;;;;;;-144.47;61.67;53384.44;5058875;28;20028;-70
2022/05/22 05:08:01;;;;;;;11.95;4.80;;;;;;;-144.47;61.57;53370.53;5066312;28;20051;-70
2022/05/22 05:10:27;;;;;;;10.93;4.18;;;;;;;-144.47;61.02;53392.41;5070004;28;20047;-70
2022/05/22 05:12:52;;;;;;;10.48;3.90;;;;;;;-144.47;60.96;53358.63;5065628;28;20568;-70
2022/05/22 05:15:20;;;;;;;11.55;3.72;;;;;;;-144.47;60.29;53356.63;5051310;28;20040;-71
2022/05/22 05:17:47;;;;;;;11.15;3.53;;;;;;;-144.47;59.96;53378.50;5061432;28;20024;-68
2022/05/22 05:20:16;;;;;;;10.35;3.38;;;;;;;-144.47;59.92;53348.69;5045314;28;20020;-69
2022/05/22 05:22:42;;;;;;;;;;;;;;;-144.47;59.81;53356.63;5050210;28;20028;-71
2022/05/22 05:25:08;;;;;;;12.52;3.67;;;;;;;-144.47;59.98;53426.16;5060272;28;19913;-69
2022/05/22 05:27:33;;;;;;;9.55;3.85;;;;;;;-144.47;60.00;53348.69;5063239;28;20032;-70
2022/05/22 05:29:58;;;;;;;11.07;3.20;;;;;;;-144.47;59.42;53352.66;5059756;28;20020;-69
2022/05/22 05:32:24;;;;;;;10.73;3.13;;;;;;;-144.47;58.76;53362.59;5052636;28;20036;-70
2022/05/22 05:35:00;;;;;;;8.40;3.17;;;;;;;-144.47;58.67;53376.50;5070221;28;20086;-69
2022/05/22 05:37:26;;;;;;;8.43;2.92;;;;;;;-144.47;58.78;53396.38;5051709;28;20025;-68
2022/05/22 05:39:51;;;;;;;14.98;4.05;;;;;;;-144.47;59.12;53408.28;5049714;28;20058;-69
2022/05/22 05:42:17;;;;;;;11.93;3.15;;;;;;;-144.47;58.60;53350.69;5062660;28;20174;-72
2022/05/22 05:44:42;;;;;;;12.20;3.40;;;;;;;-144.47;57.84;53392.41;5049382;28;20557;-70
2022/05/22 05:47:09;;;;;;;15.35;3.50;;;;;;;-144.47;58.16;53392.41;5044271;28;20025;-70
2022/05/22 05:49:37;;;;;;;9.20;3.30;;;;;;;-144.47;57.49;53406.31;5068724;28;20024;-70
2022/05/22 05:52:03;;;;;;;15.90;3.15;;;;;;;-144.47;58.01;53362.59;5067767;28;20028;-69
2022/05/22 05:54:29;;;;;;;12.13;3.00;;;;;;;-144.47;56.73;53348.69;5057587;28;20035;-71
2022/05/22 05:56:55;;;;;;;9.15;2.50;;;;;;;-144.47;55.98;53400.34;5050574;28;20020;-70
2022/05/22 05:59:21;;;;;;;7.80;2.30;;;;;;;-144.47;55.65;53374.50;5038993;28;20065;-67
2022/05/22 06:01:46;;;;;;;13.05;2.72;;;;;;;-144.47;55.21;53394.38;5066672;28;20028;-69
2022/05/22 06:04:11;;;;;;;10.27;2.25;;;;;;;-144.47;55.08;53348.69;5055118;28;20029;-69
2022/05/22 06:06:37;;;;;;;9.50;2.22;;;;;;;-144.47;54.60;53350.69;5054500;28;20025;-69
2022/05/22 06:09:03;;;;;;;14.73;2.47;;;;;;;-144.47;54.45;53336.78;5040815;28;20056;-70
2022/05/22 06:11:28;;;;;;;8.50;2.05;;;;;;;-144.47;53.89;53326.84;5039020;28;20636;-69
2022/05/22 06:13:54;;;;;;;8.82;2.70;;;;;;;-144.47;53.84;53366.56;5045182;28;20021;-70
2022/05/22 06:16:19;;;;;;;10.32;3.20;;;;;;;-144.47;54.12;53305.00;5040988;28;20032;-69
2022/05/22 06:18:45;;;;;;;7.80;2.38;;;;;;;-144.47;54.05;53350.69;5046386;28;20025;-68
2022/05/22 06:21:12;;;;;;;9.55;2.30;;;;;;;-144.47;54.06;53368.56;5062366;28;20052;-71
2022/05/22 06:23:38;;;;;;;7.82;2.25;;;;;;;-144.47;53.88;53364.59;5043212;28;20029;-68
2022/05/22 06:26:05;;;;;;;9.73;2.63;;;;;;;-144.47;54.31;53332.81;5066976;28;20078;-68
2022/05/22 06:28:30;;;;;;;13.32;3.03;;;;;;;-144.47;54.35;53352.66;5068556;28;20029;-69
2022/05/22 06:30:56;;;;;;;6.38;2.17;;;;;;;-144.47;54.49;53352.66;5058990;28;20106;-70
2022/05/22 06:33:21;;;;;;;7.35;1.90;;;;;;;-144.47;53.77;53352.66;5058320;28;20395;-71
2022/05/22 06:35:46;;;;;;;7.35;1.90;;;;;;;-144.47;53.67;53330.81;5064050;28;20032;-70
2022/05/22 06:39:49;;;;;;;6.53;2.00;;;;;;;-144.47;53.67;53346.72;5047688;28;20077;-70
2022/05/22 06:40:58;;;;;;;7.63;2.38;;;;;;;-144.47;54.12;53344.72;5052515;28;20077;-68
2022/05/22 06:43:23;;;;;;;15.80;3.50;;;;;;;-144.47;53.90;53342.72;5037545;28;20033;-69
2022/05/22 06:45:50;;;;;;;14.43;2.90;;;;;;;-144.47;53.33;53326.84;5055113;28;20021;-70
2022/05/22 06:48:16;;;;;;;11.23;1.73;;;;;;;-144.47;52.76;53340.75;5047054;28;20036;-70
2022/05/22 06:50:41;;;;;;;9.75;1.65;;;;;;;-144.47;52.66;53354.66;5056137;28;20033;-68
2022/05/22 06:53:06;;;;;;;7.88;1.90;;;;;;;-144.47;52.22;53310.94;5058230;22;20067;-66
2022/05/22 06:55:32;;;;;;;8.55;2.08;;;;;;;-144.47;52.24;53332.81;5031100;28;20053;-67
2022/05/22 06:57:57;;;;;;;13.95;2.03;;;;;;;-144.47;51.75;53316.91;5033969;28;20030;-69
2022/05/22 07:00:23;;;;;;;5.75;1.75;;;;;;;-144.47;51.41;53334.78;5028342;28;20029;-70
2022/05/22 07:02:52;;;;;;;12.50;1.98;;;;;;;-144.47;51.49;53344.72;5023335;28;20032;-66
2022/05/22 07:05:18;;;;;;;7.15;1.83;;;;;;;-144.47;51.27;53348.69;5048214;28;20013;-68
2022/05/22 07:07:43;;;;;;;11.45;2.13;;;;;;;-144.47;51.82;53350.69;5047912;28;20053;-70
2022/05/22 07:10:09;;;;;;;8.15;1.70;;;;;;;-144.47;51.48;53328.81;5042130;28;20156;-66
2022/05/22 07:12:34;;;;;;;10.10;2.47;;;;;;;-144.47;51.31;53308.97;5019820;28;20552;-68
2022/05/22 07:14:59;;;;;;;8.25;1.88;;;;;;;-144.47;50.58;53306.97;5021885;28;20536;-70
2022/05/22 07:17:25;;;;;;;7.60;1.52;;;;;;;-144.47;50.28;53378.50;5028632;28;20029;-69
2022/05/22 07:19:52;;;;;;;8.23;1.58;;;;;;;-144.47;50.12;53303.00;5016364;28;20045;-70
2022/05/22 07:22:17;;;;;;;10.15;1.88;;;;;;;-144.47;50.13;53320.88;5026004;28;20136;-72
2022/05/22 07:24:43;;;;;;;13.93;1.83;;;;;;;-144.47;50.38;53322.88;5017296;28;20046;-70
2022/05/22 07:27:08;;;;;;;6.93;1.92;;;;;;;-144.47;50.22;53318.91;5017441;28;20087;-67
2022/05/22 07:29:33;;;;;;;10.00;2.70;;;;;;;-144.47;50.08;53390.41;5026396;28;20034;-69
2022/05/22 07:31:59;;;;;;;9.05;1.83;;;;;;;-144.47;49.90;53312.94;5021097;28;20032;-70
2022/05/22 07:34:26;;;;;;;9.45;1.73;;;;;;;-144.47;49.43;53316.91;5021598;28;20022;-71
2022/05/22 07:36:59;;;;;;;11.88;2.20;;;;;;;-144.47;49.24;53330.81;5021398;28;20048;-69
2022/05/22 07:39:25;;;;;;;6.00;1.95;;;;;;;-144.47;49.14;53314.91;5024771;28;20021;-70
2022/05/22 07:41:51;;;;;;;14.95;2.30;;;;;;;-144.47;48.67;53324.84;5030752;28;20033;-69
2022/05/22 07:44:17;;;;;;;11.35;2.22;;;;;;;-144.47;48.68;53303.00;5027461;28;20469;-66
2022/05/22 07:46:42;;;;;;;10.52;2.10;;;;;;;-144.47;48.79;53336.78;5027846;28;20060;-69
2022/05/22 07:49:08;;;;;;;10.60;2.22;;;;;;;-144.47;48.19;53318.91;5031080;28;20102;-69
2022/05/22 07:51:34;;;;;;;12.23;2.35;;;;;;;-144.47;48.21;53316.91;5031538;28;20025;-69
2022/05/22 07:53:59;;;;;;;10.40;1.92;;;;;;;-144.47;48.15;53301.03;5026772;28;20429;-71
2022/05/22 07:56:25;;;;;;;8.85;1.90;;;;;;;-144.47;48.56;53293.06;5021804;28;20036;-69
2022/05/22 07:58:50;;;;;;;12.88;2.70;;;;;;;-144.47;48.06;53312.94;5033742;28;20074;-69
2022/05/22 08:01:17;;;;;;;9.02;1.75;;;;;;;-144.47;47.77;53330.81;5016190;28;20029;-66
2022/05/22 08:03:43;;;;;;;6.38;2.92;;;;;;;-144.47;48.29;53326.84;5030539;28;20021;-70
2022/05/22 08:06:08;;;;;;;9.85;2.25;;;;;;;-144.47;47.88;53332.81;5032214;28;20025;-68
2022/05/22 08:08:34;;;;;;;8.73;1.80;;;;;;;-144.47;47.99;53275.19;5035048;28;20025;-71
2022/05/22 08:10:59;;;;;;;14.32;2.25;;;;;;;-144.47;47.54;53305.00;5022254;28;20076;-70
2022/05/22 08:13:25;;;;;;;13.13;3.00;;;;;;;-144.47;47.86;53267.25;5028312;28;20104;-68
2022/05/22 08:15:50;;;;;;;7.88;1.85;;;;;;;-144.47;47.62;53308.97;5026860;28;20401;-69
2022/05/22 08:18:16;;;;;;;7.97;1.83;;;;;;;-144.47;47.52;53303.00;5024840;28;20395;-68
2022/05/22 08:20:46;;;;;;;9.30;2.22;;;;;;;-144.47;47.38;53306.97;5030709;28;20036;-70
2022/05/22 08:23:17;;;;;;;12.13;2.60;;;;;;;-144.47;47.61;53273.22;5032580;28;20028;-71
2022/05/22 08:25:43;;;;;;;11.70;2.17;;;;;;;-144.47;47.66;53312.94;5025241;28;20065;-70
2022/05/22 08:28:08;;;;;;;7.63;2.00;;;;;;;-144.47;46.83;53308.97;5035800;28;20057;-67
2022/05/22 08:30:33;;;;;;;14.80;2.17;;;;;;;-144.47;46.97;53305.00;5030112;28;20087;-70
2022/05/22 08:33:01;;;;;;;11.38;2.33;;;;;;;-144.47;46.73;53285.13;5031394;28;20028;-69
2022/05/22 08:35:32;;;;;;;9.20;1.95;;;;;;;-144.47;46.27;53299.03;5029636;28;20100;-67
2022/05/22 08:37:58;;;;;;;7.97;1.98;;;;;;;-144.47;46.32;53320.88;5035214;28;20021;-69
2022/05/22 08:40:26;;;;;;;12.02;1.95;;;;;;;-144.47;46.75;53293.06;5025249;28;20029;-72
2022/05/22 08:43:02;;;;;;;6.93;2.05;;;;;;;-144.47;46.19;53305.00;5024791;28;20495;-69
2022/05/22 08:45:38;;;;;;;10.85;2.40;;;;;;;-144.47;45.52;53320.88;5023631;28;20104;-68
2022/05/22 08:48:12;;;;;;;8.70;2.63;;;;;;;-144.47;45.25;53285.13;5026206;28;20488;-72
2022/05/22 08:50:38;;;;;;;11.05;2.38;;;;;;;-144.47;44.04;53314.91;5024928;28;20113;-70
2022/05/22 08:53:11;;;;;;;6.82;1.85;;;;;;;-144.47;43.97;53299.03;5022461;28;20472;-69
2022/05/22 09:01:23;;;;;;;8.75;2.42;;;;;;;-144.47;44.54;53289.09;5034968;28;20060;-69
2022/05/22 09:03:57;;;;;;;12.57;2.17;;;;;;;-144.47;44.74;53267.25;5036796;28;20028;-68
2022/05/22 09:06:30;;;;;;;15.48;2.42;;;;;;;-144.47;44.25;53265.25;5036235;28;20086;-68
2022/05/22 09:08:55;;;;;;;10.07;2.50;;;;;;;-144.47;44.14;53271.22;5024335;28;20025;-70
2022/05/22 09:11:45;;;;;;;16.80;2.67;;;;;;;-144.47;43.21;53279.16;5025284;28;20068;-68
2022/05/22 09:14:27;;;;;;;8.45;2.08;;;;;;;-144.47;42.73;53291.09;5023985;28;20066;-72
2022/05/22 09:17:14;;;;;;;11.90;2.65;;;;;;;-144.47;42.94;53277.19;5028998;28;20079;-72
2022/05/22 09:19:44;;;;;;;9.63;2.35;;;;;;;-144.47;42.58;53279.16;5005368;28;20026;-69
2022/05/22 09:22:31;;;;;;;11.93;2.63;;;;;;;-144.47;44.16;53285.13;5027504;28;20028;-69
2022/05/22 09:25:20;;;;;;;9.32;2.20;;;;;;;-144.47;44.50;53289.09;5032679;28;20029;-71
2022/05/22 09:27:59;;;;;;;8.55;2.22;;;;;;;-144.47;43.28;53305.00;5027781;28;20034;-69
2022/05/22 09:30:33;;;;;;;6.35;1.90;;;;;;;-144.47;43.09;53267.25;5019674;28;20097;-71
2022/05/22 09:33:13;;;;;;;7.20;1.98;;;;;;;-144.47;42.53;53308.97;5020094;28;20029;-69
2022/05/22 09:35:57;;;;;;;8.50;1.80;;;;;;;-144.47;42.41;53283.13;5017403;28;20030;-72
2022/05/22 09:39:10;;;;;;;6.72;2.10;;;;;;;-144.47;43.74;53303.00;5005997;28;20534;-67
2022/05/22 09:41:56;;;;;;;8.15;1.98;;;;;;;-144.47;44.48;53303.00;4998020;28;20068;-70
2022/05/22 09:44:46;;;;;;;5.35;1.90;;;;;;;-144.47;42.66;53277.19;5003106;28;20034;-69
2022/05/22 09:47:20;;;;;;;7.95;2.30;;;;;;;-144.47;42.15;53271.22;5019343;28;20041;-73
2022/05/22 09:50:09;;;;;;;13.25;3.17;;;;;;;-144.47;42.32;53231.50;5016449;28;20073;-68
2022/05/22 09:52:48;;;;;;;;;;;;;;;-144.47;42.15;53281.16;5021575;28;20527;-68
2022/05/22 09:55:19;;;;;;;;;;;;;;;-144.47;41.77;53283.13;5019641;28;19998;-72
2022/05/22 09:58:16;;;;;;;12.13;2.40;;;;;;;-144.47;40.36;53255.34;5017362;28;19909;-68
2022/05/22 10:01:13;;;;;;;7.82;2.55;;;;;;;-144.47;41.20;53257.31;5015513;28;20037;-72
2022/05/22 10:04:12;;;;;;;6.60;1.70;;;;;;;-144.47;41.10;53271.22;5024203;28;20057;-68
2022/05/22 10:07:09;;;;;;;8.07;2.13;;;;;;;-144.47;41.06;53263.28;4994552;28;20053;-68
2022/05/22 10:09:54;;;;;;;8.68;1.95;;;;;;;-144.47;40.91;53259.31;5024747;28;20184;-69
2022/05/22 10:12:41;;;;;;;7.53;2.40;;;;;;;-144.47;40.38;53261.28;5026365;28;20036;-70
2022/05/22 10:15:09;;;;;;;6.10;1.63;;;;;;;-144.47;38.23;53203.69;5033838;28;20525;-67
2022/05/22 10:17:48;;;;;;;4.95;1.80;;;;;;;-144.47;38.91;53259.31;5031670;28;20017;-64
2022/05/22 10:20:13;;;;;;;;;;;;;;;-144.47;39.26;53275.19;5025192;28;20407;-68
2022/05/22 10:22:47;;;;;;;7.30;1.58;;;;;;;-144.47;39.17;53239.44;5020186;28;19909;-69
2022/05/22 10:26:07;;;;;;;8.02;2.03;;;;;;;-144.47;39.61;53283.13;5006239;28;20026;-68
2022/05/22 10:28:37;;;;;;;5.88;1.90;;;;;;;-144.47;38.95;53237.44;4987061;28;20035;-67
2022/05/22 10:31:16;;;;;;;8.93;1.90;;;;;;;-144.47;38.81;53223.56;5022256;28;20071;-68
2022/05/22 10:34:00;;;;;;;4.90;1.70;;;;;;;-144.47;39.07;53253.34;5025183;28;20464;-69
2022/05/22 10:36:34;;;;;;;15.00;1.80;;;;;;;-144.47;38.85;53207.66;5026160;28;20059;-67
2022/05/22 10:39:14;;;;;;;9.15;2.03;;;;;;;-144.47;37.67;53259.31;5027102;28;20025;-67
2022/05/22 10:45:13;;;;;;;8.50;2.05;;;;;;;-144.47;38.29;53247.38;4962260;28;20401;-69
2022/05/22 10:47:38;;;;;;;7.05;2.35;;;;;;;-144.47;38.09;53265.25;4965033;28;20101;-67
2022/05/22 10:50:33;;;;;;;9.95;2.08;;;;;;;-144.47;38.08;53235.47;4963301;28;20094;-67
2022/05/22 10:52:59;;;;;;;8.75;2.03;;;;;;;-144.47;38.54;53215.59;4948109;28;20147;-68
2022/05/22 10:55:32;;;;;;;6.20;1.77;;;;;;;-144.47;38.00;53257.31;4966743;28;20050;-66
2022/05/22 10:58:16;;;;;;;5.28;1.83;;;;;;;-144.47;37.68;53249.38;4960698;28;20039;-67
2022/05/22 11:00:54;;;;;;;12.35;2.50;;;;;;;-144.47;38.11;53253.34;4965378;28;20026;-67
2022/05/22 11:03:26;;;;;;;7.93;2.05;;;;;;;-144.47;37.81;53217.59;4964941;28;20035;-68
2022/05/22 11:05:52;;;;;;;14.00;2.35;;;;;;;-144.47;37.65;53245.41;4965898;28;20168;-70
2022/05/22 11:08:34;;;;;;;11.13;2.28;;;;;;;-144.47;36.99;53233.47;4963729;28;20118;-69
2022/05/22 11:11:24;;;;;;;6.97;1.67;;;;;;;-144.47;36.93;53239.44;4966522;28;20042;-68
2022/05/22 11:13:53;;;;;;;5.72;2.00;;;;;;;-144.47;38.01;53267.25;4960228;28;20039;-66
2022/05/22 11:16:24;;;;;;;7.68;2.28;;;;;;;-144.47;37.55;53221.56;5006994;28;20634;-65
2022/05/22 11:19:05;;;;;;;13.60;2.28;;;;;;;-144.47;37.81;53271.22;5020026;28;20036;-67
2022/05/22 11:22:08;;;;;;;6.78;2.53;;;;;;;-144.47;37.43;53233.47;5013489;28;20084;-67
2022/05/22 11:24:59;;;;;;;6.97;2.20;;;;;;;-144.47;36.94;53205.66;5023115;28;20164;-67
2022/05/22 11:27:43;;;;;;;12.55;2.40;;;;;;;-144.47;37.14;53215.59;5007553;28;20060;-65
2022/05/22 11:30:30;;;;;;;6.68;2.20;;;;;;;-144.47;36.97;53235.47;5023920;28;20087;-69
2022/05/22 11:33:09;;;;;;;11.95;2.20;;;;;;;-144.47;37.28;53227.53;5022927;28;20029;-65
2022/05/22 11:35:42;;;;;;;6.72;1.38;;;;;;;-144.47;35.96;53237.44;5007344;28;20025;-66
2022/05/22 11:38:45;;;;;;;9.30;1.63;;;;;;;-144.47;36.06;53249.38;5023156;28;20057;-67
2022/05/22 11:41:20;;;;;;;11.27;1.80;;;;;;;-144.47;36.51;53255.34;5025829;28;20038;-68
2022/05/22 11:44:19;;;;;;;6.35;1.90;;;;;;;-144.47;35.28;53267.25;5021564;28;20030;-69